sensor_id;sensor_type;location;lat;lon;timestamp;pressure;altitude;pressure_sealevel;temperature;humidity
19005;BME280;9635;52.078;8.648;2023-03-08T00:00:07;98845.47;;;-0.30;84.26
19005;BME280;9635;52.078;8.648;2023-03-08T00:05:11;98841.03;;;-0.29;84.36
19005;BME280;9635;52.078;8.648;2023-03-08T00:10:16;98846.75;;;-0.22;84.18
19005;BME280;9635;52.078;8.648;2023-03-08T00:15:19;98862.00;;;-0.42;84.36
19005;BME280;9635;52.078;8.648;2023-03-08T00:20:27;98864.88;;;-0.75;85.35
19005;BME280;9635;52.078;8.648;2023-03-08T00:26:01;98866.94;;;-0.66;83.86
19005;BME280;9635;52.078;8.648;2023-03-08T00:52:54;98865.81;;;-0.76;84.30
19005;BME280;9635;52.078;8.648;2023-03-08T00:57:57;98869.25;;;-0.60;83.78
19005;BME280;9635;52.078;8.648;2023-03-08T01:03:00;98866.38;;;-0.41;83.40
19005;BME280;9635;52.078;8.648;2023-03-08T01:08:04;98864.25;;;-0.50;83.05
19005;BME280;9635;52.078;8.648;2023-03-08T01:13:08;98862.03;;;-0.28;82.43
19005;BME280;9635;52.078;8.648;2023-03-08T01:18:11;98860.34;;;-0.29;82.06
19005;BME280;9635;52.078;8.648;2023-03-08T01:23:15;98860.44;;;-0.16;81.90
19005;BME280;9635;52.078;8.648;2023-03-08T01:28:18;98856.56;;;-0.39;82.72
19005;BME280;9635;52.078;8.648;2023-03-08T01:33:21;98859.03;;;-0.21;81.82
19005;BME280;9635;52.078;8.648;2023-03-08T01:38:27;98849.28;;;-0.50;81.96
19005;BME280;9635;52.078;8.648;2023-03-08T01:43:31;98837.09;;;-0.22;81.55
19005;BME280;9635;52.078;8.648;2023-03-08T01:48:37;98839.03;;;-0.25;81.59
19005;BME280;9635;52.078;8.648;2023-03-08T01:53:47;98841.03;;;-0.15;81.40
19005;BME280;9635;52.078;8.648;2023-03-08T01:58:50;98835.19;;;-0.20;81.80
19005;BME280;9635;52.078;8.648;2023-03-08T02:03:54;98840.44;;;-0.34;81.87
19005;BME280;9635;52.078;8.648;2023-03-08T02:08:59;98827.94;;;-0.16;81.26
19005;BME280;9635;52.078;8.648;2023-03-08T02:14:05;98825.00;;;-0.40;81.17
19005;BME280;9635;52.078;8.648;2023-03-08T02:19:13;98823.06;;;-0.81;81.23
19005;BME280;9635;52.078;8.648;2023-03-08T02:24:23;98810.84;;;-0.68;79.93
19005;BME280;9635;52.078;8.648;2023-03-08T02:29:26;98812.66;;;-0.40;78.99
19005;BME280;9635;52.078;8.648;2023-03-08T02:34:29;98813.88;;;-0.45;79.62
19005;BME280;9635;52.078;8.648;2023-03-08T02:39:33;98803.97;;;-0.56;79.67
19005;BME280;9635;52.078;8.648;2023-03-08T02:44:36;98802.75;;;-0.51;80.17
19005;BME280;9635;52.078;8.648;2023-03-08T02:49:39;98799.72;;;-0.44;80.08
19005;BME280;9635;52.078;8.648;2023-03-08T02:54:45;98792.88;;;-0.33;79.78
19005;BME280;9635;52.078;8.648;2023-03-08T02:59:47;98792.31;;;-0.23;79.70
19005;BME280;9635;52.078;8.648;2023-03-08T03:04:51;98794.19;;;-0.25;80.48
19005;BME280;9635;52.078;8.648;2023-03-08T03:09:55;98785.03;;;-0.63;80.52
19005;BME280;9635;52.078;8.648;2023-03-08T03:14:59;98770.44;;;-0.54;80.76
19005;BME280;9635;52.078;8.648;2023-03-08T03:20:03;98776.19;;;-0.33;80.28
19005;BME280;9635;52.078;8.648;2023-03-08T03:25:08;98774.69;;;-0.52;80.30
19005;BME280;9635;52.078;8.648;2023-03-08T03:30:11;98768.53;;;-0.81;80.34
19005;BME280;9635;52.078;8.648;2023-03-08T03:35:14;98774.56;;;-0.50;79.50
19005;BME280;9635;52.078;8.648;2023-03-08T03:40:19;98774.97;;;-0.56;79.35
19005;BME280;9635;52.078;8.648;2023-03-08T03:45:27;98790.88;;;-1.02;80.39
19005;BME280;9635;52.078;8.648;2023-03-08T03:50:31;98784.66;;;-0.57;79.68
19005;BME280;9635;52.078;8.648;2023-03-08T03:55:41;98795.47;;;-0.61;79.53
19005;BME280;9635;52.078;8.648;2023-03-08T04:00:44;98789.94;;;-0.57;79.10
19005;BME280;9635;52.078;8.648;2023-03-08T04:06:04;98789.09;;;-0.57;79.69
19005;BME280;9635;52.078;8.648;2023-03-08T04:11:12;98796.88;;;-0.84;79.50
19005;BME280;9635;52.078;8.648;2023-03-08T04:16:17;98786.34;;;-0.56;79.07
19005;BME280;9635;52.078;8.648;2023-03-08T04:21:21;98788.81;;;-0.38;78.39
19005;BME280;9635;52.078;8.648;2023-03-08T04:26:27;98783.44;;;-0.51;78.79
19005;BME280;9635;52.078;8.648;2023-03-08T04:31:31;98778.69;;;-0.75;79.08
19005;BME280;9635;52.078;8.648;2023-03-08T04:36:38;98782.28;;;-0.76;79.48
19005;BME280;9635;52.078;8.648;2023-03-08T04:41:44;98787.53;;;-0.90;80.07
19005;BME280;9635;52.078;8.648;2023-03-08T04:46:56;98779.19;;;-0.82;79.49
19005;BME280;9635;52.078;8.648;2023-03-08T04:52:13;98766.63;;;-0.93;79.53
19005;BME280;9635;52.078;8.648;2023-03-08T04:57:18;98765.66;;;-1.06;80.31
19005;BME280;9635;52.078;8.648;2023-03-08T05:02:23;98757.34;;;-0.70;79.23
19005;BME280;9635;52.078;8.648;2023-03-08T05:07:26;98738.59;;;-0.51;79.11
19005;BME280;9635;52.078;8.648;2023-03-08T05:12:33;98728.78;;;-0.63;79.41
19005;BME280;9635;52.078;8.648;2023-03-08T05:17:38;98739.91;;;-0.73;79.72
19005;BME280;9635;52.078;8.648;2023-03-08T05:22:41;98738.50;;;-0.64;79.46
19005;BME280;9635;52.078;8.648;2023-03-08T05:28:03;98740.47;;;-0.67;79.38
19005;BME280;9635;52.078;8.648;2023-03-08T05:33:06;98735.22;;;-0.67;79.25
19005;BME280;9635;52.078;8.648;2023-03-08T05:38:09;98727.00;;;-0.77;79.47
19005;BME280;9635;52.078;8.648;2023-03-08T05:43:14;98727.78;;;-0.46;79.07
19005;BME280;9635;52.078;8.648;2023-03-08T05:48:17;98713.88;;;-0.36;79.11
19005;BME280;9635;52.078;8.648;2023-03-08T05:53:21;98709.97;;;-0.43;78.87
19005;BME280;9635;52.078;8.648;2023-03-08T05:58:25;98704.28;;;-0.37;79.03
19005;BME280;9635;52.078;8.648;2023-03-08T06:03:28;98711.63;;;-0.28;79.29
19005;BME280;9635;52.078;8.648;2023-03-08T06:08:31;98705.50;;;-0.28;78.82
19005;BME280;9635;52.078;8.648;2023-03-08T06:13:36;98689.09;;;-0.19;79.76
19005;BME280;9635;52.078;8.648;2023-03-08T06:18:40;98682.03;;;-0.18;79.99
19005;BME280;9635;52.078;8.648;2023-03-08T06:23:46;98681.91;;;-0.17;79.92
19005;BME280;9635;52.078;8.648;2023-03-08T06:28:50;98671.81;;;-0.10;80.73
19005;BME280;9635;52.078;8.648;2023-03-08T06:33:54;98664.25;;;-0.02;81.03
19005;BME280;9635;52.078;8.648;2023-03-08T06:38:59;98667.94;;;-0.04;80.53
19005;BME280;9635;52.078;8.648;2023-03-08T06:44:04;98671.63;;;-0.07;80.08
19005;BME280;9635;52.078;8.648;2023-03-08T06:49:07;98661.69;;;-0.03;80.35
19005;BME280;9635;52.078;8.648;2023-03-08T06:54:12;98661.97;;;0.06;81.03
19005;BME280;9635;52.078;8.648;2023-03-08T06:59:21;98656.56;;;0.08;81.06
19005;BME280;9635;52.078;8.648;2023-03-08T07:04:23;98638.00;;;0.09;80.24
19005;BME280;9635;52.078;8.648;2023-03-08T07:09:26;98627.03;;;0.15;80.20
19005;BME280;9635;52.078;8.648;2023-03-08T07:14:31;98625.69;;;0.23;80.76
19005;BME280;9635;52.078;8.648;2023-03-08T07:19:33;98611.72;;;0.60;80.22
19005;BME280;9635;52.078;8.648;2023-03-08T07:24:36;98617.09;;;0.72;79.84
19005;BME280;9635;52.078;8.648;2023-03-08T07:29:41;98615.31;;;0.85;79.39
19005;BME280;9635;52.078;8.648;2023-03-08T07:34:43;98606.50;;;0.97;79.62
19005;BME280;9635;52.078;8.648;2023-03-08T07:39:46;98613.25;;;1.01;78.66
19005;BME280;9635;52.078;8.648;2023-03-08T07:44:51;98616.78;;;0.89;78.45
19005;BME280;9635;52.078;8.648;2023-03-08T07:49:53;98602.09;;;0.85;78.79
19005;BME280;9635;52.078;8.648;2023-03-08T07:54:56;98598.50;;;0.86;78.44
19005;BME280;9635;52.078;8.648;2023-03-08T08:00:01;98603.78;;;0.86;78.71
19005;BME280;9635;52.078;8.648;2023-03-08T08:05:12;98602.06;;;0.98;79.09
19005;BME280;9635;52.078;8.648;2023-03-08T08:10:16;98597.22;;;1.04;79.07
19005;BME280;9635;52.078;8.648;2023-03-08T08:15:20;98598.69;;;1.09;79.76
19005;BME280;9635;52.078;8.648;2023-03-08T08:20:25;98591.94;;;1.04;78.52
19005;BME280;9635;52.078;8.648;2023-03-08T08:25:28;98595.59;;;1.15;78.88
19005;BME280;9635;52.078;8.648;2023-03-08T08:30:32;98584.38;;;1.24;78.08
19005;BME280;9635;52.078;8.648;2023-03-08T08:35:38;98585.97;;;1.26;78.49
19005;BME280;9635;52.078;8.648;2023-03-08T08:40:44;98577.91;;;1.28;78.27
19005;BME280;9635;52.078;8.648;2023-03-08T08:45:52;98561.72;;;1.20;77.91
19005;BME280;9635;52.078;8.648;2023-03-08T08:50:57;98567.53;;;1.38;77.70
19005;BME280;9635;52.078;8.648;2023-03-08T08:56:09;98560.25;;;1.53;77.73
19005;BME280;9635;52.078;8.648;2023-03-08T09:01:29;98541.75;;;1.53;77.52
19005;BME280;9635;52.078;8.648;2023-03-08T09:06:33;98535.81;;;1.25;77.02
19005;BME280;9635;52.078;8.648;2023-03-08T09:11:35;98535.66;;;1.39;77.33
19005;BME280;9635;52.078;8.648;2023-03-08T09:16:56;98524.84;;;1.42;76.88
19005;BME280;9635;52.078;8.648;2023-03-08T09:21:59;98518.19;;;1.37;76.85
19005;BME280;9635;52.078;8.648;2023-03-08T09:27:03;98518.88;;;1.27;76.37
19005;BME280;9635;52.078;8.648;2023-03-08T09:32:08;98500.31;;;1.40;77.01
19005;BME280;9635;52.078;8.648;2023-03-08T09:37:11;98501.50;;;1.60;76.99
19005;BME280;9635;52.078;8.648;2023-03-08T09:42:17;98489.41;;;1.80;77.22
19005;BME280;9635;52.078;8.648;2023-03-08T09:47:45;98482.84;;;1.62;76.91
19005;BME280;9635;52.078;8.648;2023-03-08T09:52:50;98474.63;;;1.54;77.48
19005;BME280;9635;52.078;8.648;2023-03-08T09:57:59;98467.31;;;1.57;78.13
19005;BME280;9635;52.078;8.648;2023-03-08T10:03:21;98462.41;;;1.64;78.26
19005;BME280;9635;52.078;8.648;2023-03-08T10:08:31;98460.59;;;1.64;78.05
19005;BME280;9635;52.078;8.648;2023-03-08T10:13:37;98463.19;;;1.53;77.96
19005;BME280;9635;52.078;8.648;2023-03-08T10:18:45;98448.88;;;1.91;78.27
19005;BME280;9635;52.078;8.648;2023-03-08T10:23:56;98445.38;;;1.79;76.23
19005;BME280;9635;52.078;8.648;2023-03-08T10:29:00;98446.31;;;1.78;76.56
19005;BME280;9635;52.078;8.648;2023-03-08T10:34:11;98444.19;;;1.24;75.96
19005;BME280;9635;52.078;8.648;2023-03-08T10:39:13;98434.88;;;1.78;76.67
19005;BME280;9635;52.078;8.648;2023-03-08T10:44:29;98428.03;;;1.75;75.78
19005;BME280;9635;52.078;8.648;2023-03-08T10:49:35;98433.72;;;1.82;76.81
19005;BME280;9635;52.078;8.648;2023-03-08T10:54:38;98438.16;;;1.81;75.88
19005;BME280;9635;52.078;8.648;2023-03-08T10:59:47;98424.34;;;2.00;76.31
19005;BME280;9635;52.078;8.648;2023-03-08T11:04:55;98413.91;;;2.21;75.81
19005;BME280;9635;52.078;8.648;2023-03-08T11:10:16;98414.97;;;2.07;74.65
19005;BME280;9635;52.078;8.648;2023-03-08T11:15:20;98421.84;;;2.32;75.98
19005;BME280;9635;52.078;8.648;2023-03-08T11:20:27;98408.00;;;2.74;74.18
19005;BME280;9635;52.078;8.648;2023-03-08T11:25:37;98415.97;;;2.63;72.57
19005;BME280;9635;52.078;8.648;2023-03-08T11:30:51;98409.31;;;1.89;75.79
19005;BME280;9635;52.078;8.648;2023-03-08T11:36:04;98399.94;;;2.53;75.60
19005;BME280;9635;52.078;8.648;2023-03-08T11:41:18;98395.81;;;2.82;73.44
19005;BME280;9635;52.078;8.648;2023-03-08T11:46:29;98381.00;;;3.23;75.12
19005;BME280;9635;52.078;8.648;2023-03-08T11:51:39;98388.94;;;2.91;74.27
19005;BME280;9635;52.078;8.648;2023-03-08T11:56:50;98384.84;;;3.31;73.66
19005;BME280;9635;52.078;8.648;2023-03-08T12:01:59;98382.53;;;3.05;72.18
19005;BME280;9635;52.078;8.648;2023-03-08T12:07:08;98388.63;;;2.62;73.81
19005;BME280;9635;52.078;8.648;2023-03-08T12:12:19;98388.44;;;1.62;73.77
19005;BME280;9635;52.078;8.648;2023-03-08T12:17:26;98375.72;;;1.79;74.10
19005;BME280;9635;52.078;8.648;2023-03-08T12:22:43;98352.00;;;1.88;73.52
19005;BME280;9635;52.078;8.648;2023-03-08T12:27:49;98357.53;;;2.08;74.33
19005;BME280;9635;52.078;8.648;2023-03-08T12:32:55;98354.53;;;2.12;75.06
19005;BME280;9635;52.078;8.648;2023-03-08T12:38:03;98361.75;;;1.99;75.32
19005;BME280;9635;52.078;8.648;2023-03-08T12:43:10;98358.63;;;1.94;74.69
19005;BME280;9635;52.078;8.648;2023-03-08T12:48:21;98344.53;;;1.82;74.60
19005;BME280;9635;52.078;8.648;2023-03-08T12:53:31;98334.19;;;1.90;73.91
19005;BME280;9635;52.078;8.648;2023-03-08T12:58:38;98315.91;;;1.87;74.26
19005;BME280;9635;52.078;8.648;2023-03-08T13:03:41;98321.69;;;2.04;74.17
19005;BME280;9635;52.078;8.648;2023-03-08T13:08:49;98336.00;;;2.01;75.53
19005;BME280;9635;52.078;8.648;2023-03-08T13:13:56;98333.97;;;2.05;75.11
19005;BME280;9635;52.078;8.648;2023-03-08T13:19:15;98331.41;;;1.92;74.62
19005;BME280;9635;52.078;8.648;2023-03-08T13:24:31;98312.50;;;2.19;75.34
19005;BME280;9635;52.078;8.648;2023-03-08T13:29:37;98310.47;;;2.00;72.74
19005;BME280;9635;52.078;8.648;2023-03-08T13:34:40;98322.63;;;2.03;73.57
19005;BME280;9635;52.078;8.648;2023-03-08T13:39:51;98321.06;;;2.00;72.60
19005;BME280;9635;52.078;8.648;2023-03-08T13:45:06;98316.16;;;1.84;72.00
19005;BME280;9635;52.078;8.648;2023-03-08T13:50:16;98318.56;;;1.76;71.60
19005;BME280;9635;52.078;8.648;2023-03-08T13:55:26;98320.22;;;1.77;72.39
19005;BME280;9635;52.078;8.648;2023-03-08T14:00:32;98323.38;;;1.82;72.44
19005;BME280;9635;52.078;8.648;2023-03-08T14:05:40;98305.66;;;1.94;73.29
19005;BME280;9635;52.078;8.648;2023-03-08T14:10:47;98284.72;;;1.91;73.60
19005;BME280;9635;52.078;8.648;2023-03-08T14:15:53;98270.53;;;1.92;73.00
19005;BME280;9635;52.078;8.648;2023-03-08T14:21:03;98260.88;;;2.02;74.02
19005;BME280;9635;52.078;8.648;2023-03-08T14:31:35;98253.28;;;2.20;72.62
19005;BME280;9635;52.078;8.648;2023-03-08T14:36:45;98245.16;;;2.01;72.73
19005;BME280;9635;52.078;8.648;2023-03-08T14:41:50;98253.56;;;1.94;73.29
19005;BME280;9635;52.078;8.648;2023-03-08T14:46:54;98232.38;;;1.94;73.98
19005;BME280;9635;52.078;8.648;2023-03-08T14:52:00;98224.31;;;1.96;74.21
19005;BME280;9635;52.078;8.648;2023-03-08T14:57:15;98218.53;;;2.02;75.15
19005;BME280;9635;52.078;8.648;2023-03-08T15:02:20;98211.19;;;1.94;74.46
19005;BME280;9635;52.078;8.648;2023-03-08T15:07:32;98207.97;;;1.80;73.08
19005;BME280;9635;52.078;8.648;2023-03-08T15:12:35;98189.31;;;1.92;73.78
19005;BME280;9635;52.078;8.648;2023-03-08T15:17:40;98176.44;;;1.88;74.07
19005;BME280;9635;52.078;8.648;2023-03-08T15:22:44;98178.34;;;1.86;74.03
19005;BME280;9635;52.078;8.648;2023-03-08T15:27:48;98190.41;;;1.79;73.71
19005;BME280;9635;52.078;8.648;2023-03-08T15:32:53;98193.91;;;1.79;74.26
19005;BME280;9635;52.078;8.648;2023-03-08T15:37:59;98217.50;;;1.60;74.29
19005;BME280;9635;52.078;8.648;2023-03-08T15:43:02;98225.66;;;1.57;74.87
19005;BME280;9635;52.078;8.648;2023-03-08T15:48:11;98225.19;;;1.52;75.55
19005;BME280;9635;52.078;8.648;2023-03-08T15:53:14;98230.09;;;1.56;76.00
19005;BME280;9635;52.078;8.648;2023-03-08T15:58:35;98234.56;;;1.56;77.33
19005;BME280;9635;52.078;8.648;2023-03-08T16:03:39;98236.59;;;1.41;77.55
19005;BME280;9635;52.078;8.648;2023-03-08T16:08:42;98215.53;;;1.17;77.85
19005;BME280;9635;52.078;8.648;2023-03-08T16:13:47;98213.19;;;1.01;78.44
19005;BME280;9635;52.078;8.648;2023-03-08T16:18:51;98215.44;;;0.83;78.98
19005;BME280;9635;52.078;8.648;2023-03-08T16:23:55;98214.13;;;0.77;79.51
19005;BME280;9635;52.078;8.648;2023-03-08T16:28:57;98222.97;;;0.76;80.09
19005;BME280;9635;52.078;8.648;2023-03-08T16:34:02;98218.06;;;0.72;80.28
19005;BME280;9635;52.078;8.648;2023-03-08T16:39:06;98229.56;;;0.71;80.97
19005;BME280;9635;52.078;8.648;2023-03-08T16:44:17;98223.22;;;0.73;81.14
19005;BME280;9635;52.078;8.648;2023-03-08T16:49:22;98235.09;;;0.68;81.43
19005;BME280;9635;52.078;8.648;2023-03-08T16:54:28;98233.50;;;0.65;81.51
19005;BME280;9635;52.078;8.648;2023-03-08T16:59:31;98239.75;;;0.64;81.70
19005;BME280;9635;52.078;8.648;2023-03-08T17:04:35;98240.94;;;0.60;81.74
19005;BME280;9635;52.078;8.648;2023-03-08T17:09:38;98242.13;;;0.56;81.86
19005;BME280;9635;52.078;8.648;2023-03-08T17:14:41;98236.00;;;0.55;82.05
19005;BME280;9635;52.078;8.648;2023-03-08T17:19:49;98233.59;;;0.52;82.24
19005;BME280;9635;52.078;8.648;2023-03-08T17:24:53;98230.59;;;0.57;82.43
19005;BME280;9635;52.078;8.648;2023-03-08T17:29:56;98237.34;;;0.61;82.78
19005;BME280;9635;52.078;8.648;2023-03-08T17:35:02;98222.00;;;0.66;82.95
19005;BME280;9635;52.078;8.648;2023-03-08T17:40:07;98224.75;;;0.65;82.65
19005;BME280;9635;52.078;8.648;2023-03-08T17:45:11;98211.44;;;0.66;83.09
19005;BME280;9635;52.078;8.648;2023-03-08T17:50:16;98197.22;;;0.56;82.74
19005;BME280;9635;52.078;8.648;2023-03-08T17:55:18;98203.75;;;0.39;82.83
19005;BME280;9635;52.078;8.648;2023-03-08T18:00:22;98202.00;;;0.51;82.75
19005;BME280;9635;52.078;8.648;2023-03-08T18:05:26;98202.84;;;0.51;82.67
19005;BME280;9635;52.078;8.648;2023-03-08T18:10:29;98212.47;;;0.52;82.63
19005;BME280;9635;52.078;8.648;2023-03-08T18:15:32;98218.81;;;0.50;82.76
19005;BME280;9635;52.078;8.648;2023-03-08T18:20:36;98206.78;;;0.46;82.77
19005;BME280;9635;52.078;8.648;2023-03-08T18:25:39;98197.75;;;0.37;82.68
19005;BME280;9635;52.078;8.648;2023-03-08T18:30:42;98202.69;;;0.42;82.31
19005;BME280;9635;52.078;8.648;2023-03-08T18:35:54;98205.19;;;0.43;82.61
19005;BME280;9635;52.078;8.648;2023-03-08T18:40:57;98190.94;;;0.46;82.66
19005;BME280;9635;52.078;8.648;2023-03-08T18:46:00;98187.44;;;0.45;82.41
19005;BME280;9635;52.078;8.648;2023-03-08T18:51:04;98194.19;;;0.49;82.41
19005;BME280;9635;52.078;8.648;2023-03-08T18:56:08;98200.09;;;0.53;82.38
19005;BME280;9635;52.078;8.648;2023-03-08T19:01:12;98194.63;;;0.43;82.63
19005;BME280;9635;52.078;8.648;2023-03-08T19:06:17;98197.44;;;0.53;82.48
19005;BME280;9635;52.078;8.648;2023-03-08T19:11:22;98196.16;;;0.58;82.51
19005;BME280;9635;52.078;8.648;2023-03-08T19:16:27;98201.19;;;0.61;82.53
19005;BME280;9635;52.078;8.648;2023-03-08T19:21:32;98198.78;;;0.58;82.72
19005;BME280;9635;52.078;8.648;2023-03-08T19:26:37;98194.13;;;0.62;82.18
19005;BME280;9635;52.078;8.648;2023-03-08T19:31:42;98192.06;;;0.66;82.44
19005;BME280;9635;52.078;8.648;2023-03-08T19:36:47;98178.16;;;0.64;82.33
19005;BME280;9635;52.078;8.648;2023-03-08T19:41:52;98181.75;;;0.63;82.29
19005;BME280;9635;52.078;8.648;2023-03-08T19:46:55;98182.72;;;0.61;82.43
19005;BME280;9635;52.078;8.648;2023-03-08T19:52:02;98174.28;;;0.56;82.29
19005;BME280;9635;52.078;8.648;2023-03-08T19:57:05;98174.28;;;0.56;82.70
19005;BME280;9635;52.078;8.648;2023-03-08T20:02:11;98185.44;;;0.60;82.44
19005;BME280;9635;52.078;8.648;2023-03-08T20:07:18;98186.69;;;0.67;82.68
19005;BME280;9635;52.078;8.648;2023-03-08T20:12:21;98174.22;;;0.69;82.97
19005;BME280;9635;52.078;8.648;2023-03-08T20:17:24;98181.31;;;0.69;82.62
19005;BME280;9635;52.078;8.648;2023-03-08T20:22:29;98180.56;;;0.67;82.42
19005;BME280;9635;52.078;8.648;2023-03-08T20:27:32;98187.41;;;0.69;82.60
19005;BME280;9635;52.078;8.648;2023-03-08T20:32:37;98186.91;;;0.64;82.61
19005;BME280;9635;52.078;8.648;2023-03-08T20:37:41;98179.59;;;0.68;82.53
19005;BME280;9635;52.078;8.648;2023-03-08T20:42:44;98181.06;;;0.72;82.66
19005;BME280;9635;52.078;8.648;2023-03-08T20:47:47;98173.75;;;0.75;82.75
19005;BME280;9635;52.078;8.648;2023-03-08T20:52:51;98174.91;;;0.71;82.40
19005;BME280;9635;52.078;8.648;2023-03-08T20:57:54;98168.09;;;0.69;82.62
19005;BME280;9635;52.078;8.648;2023-03-08T21:02:57;98152.84;;;0.72;82.54
19005;BME280;9635;52.078;8.648;2023-03-08T21:08:02;98141.28;;;0.73;82.36
19005;BME280;9635;52.078;8.648;2023-03-08T21:13:05;98138.31;;;0.78;82.35
19005;BME280;9635;52.078;8.648;2023-03-08T21:18:08;98131.34;;;0.77;82.27
19005;BME280;9635;52.078;8.648;2023-03-08T21:23:12;98123.88;;;0.71;82.40
19005;BME280;9635;52.078;8.648;2023-03-08T21:28:17;98123.53;;;0.75;82.46
19005;BME280;9635;52.078;8.648;2023-03-08T21:33:19;98122.31;;;0.79;82.36
19005;BME280;9635;52.078;8.648;2023-03-08T21:38:24;98126.06;;;0.77;82.14
19005;BME280;9635;52.078;8.648;2023-03-08T21:43:26;98117.91;;;0.80;82.12
19005;BME280;9635;52.078;8.648;2023-03-08T21:48:29;98109.84;;;0.81;82.31
19005;BME280;9635;52.078;8.648;2023-03-08T21:53:34;98114.88;;;0.84;82.29
19005;BME280;9635;52.078;8.648;2023-03-08T21:58:37;98087.38;;;0.87;82.84
19005;BME280;9635;52.078;8.648;2023-03-08T22:03:40;98088.00;;;0.91;82.51
19005;BME280;9635;52.078;8.648;2023-03-08T22:08:44;98078.38;;;0.90;82.45
19005;BME280;9635;52.078;8.648;2023-03-08T22:13:48;98071.03;;;0.82;82.06
19005;BME280;9635;52.078;8.648;2023-03-08T22:18:52;98065.88;;;0.69;81.78
19005;BME280;9635;52.078;8.648;2023-03-08T22:23:58;98063.22;;;0.69;81.68
19005;BME280;9635;52.078;8.648;2023-03-08T22:29:01;98060.34;;;0.61;81.74
19005;BME280;9635;52.078;8.648;2023-03-08T22:34:04;98056.59;;;0.52;82.03
19005;BME280;9635;52.078;8.648;2023-03-08T22:39:10;98054.91;;;0.51;82.21
19005;BME280;9635;52.078;8.648;2023-03-08T22:44:14;98064.63;;;0.51;82.18
19005;BME280;9635;52.078;8.648;2023-03-08T22:49:17;98053.97;;;0.52;82.35
19005;BME280;9635;52.078;8.648;2023-03-08T22:54:22;98033.78;;;0.51;82.69
19005;BME280;9635;52.078;8.648;2023-03-08T22:59:25;98047.94;;;0.50;82.67
19005;BME280;9635;52.078;8.648;2023-03-08T23:04:28;98035.69;;;0.49;82.93
19005;BME280;9635;52.078;8.648;2023-03-08T23:09:32;98040.97;;;0.49;83.04
19005;BME280;9635;52.078;8.648;2023-03-08T23:14:35;98054.56;;;0.45;82.81
19005;BME280;9635;52.078;8.648;2023-03-08T23:19:38;98056.47;;;0.43;83.20
19005;BME280;9635;52.078;8.648;2023-03-08T23:24:47;98042.66;;;0.39;82.98
19005;BME280;9635;52.078;8.648;2023-03-08T23:29:50;98038.06;;;0.41;83.14
19005;BME280;9635;52.078;8.648;2023-03-08T23:35:29;98033.53;;;0.43;83.47
19005;BME280;9635;52.078;8.648;2023-03-08T23:48:10;98009.16;;;0.51;83.60
19005;BME280;9635;52.078;8.648;2023-03-08T23:53:13;98000.03;;;0.55;83.59
19005;BME280;9635;52.078;8.648;2023-03-08T23:58:16;97989.94;;;0.60;83.90
